sensor_id;sensor_type;location;lat;lon;timestamp;P1;durP1;ratioP1;P2;durP2;ratioP2
20637;SDS011;10478;49.004;8.470;2022-09-17T00:00:07;0.70;;;0.47;;
20637;SDS011;10478;49.004;8.470;2022-09-17T00:02:33;5.28;;;0.70;;
20637;SDS011;10478;49.004;8.470;2022-09-17T00:04:59;3.28;;;0.80;;
20637;SDS011;10478;49.004;8.470;2022-09-17T00:07:24;2.30;;;0.90;;
20637;SDS011;10478;49.004;8.470;2022-09-17T00:09:49;3.28;;;0.60;;
20637;SDS011;10478;49.004;8.470;2022-09-17T00:12:15;1.40;;;0.90;;
20637;SDS011;10478;49.004;8.470;2022-09-17T00:14:40;2.15;;;0.52;;
20637;SDS011;10478;49.004;8.470;2022-09-17T00:17:05;3.00;;;0.93;;
20637;SDS011;10478;49.004;8.470;2022-09-17T00:19:31;0.70;;;0.45;;
20637;SDS011;10478;49.004;8.470;2022-09-17T00:21:56;2.55;;;0.70;;
20637;SDS011;10478;49.004;8.470;2022-09-17T00:24:21;3.45;;;0.73;;
20637;SDS011;10478;49.004;8.470;2022-09-17T00:26:47;1.63;;;0.75;;
20637;SDS011;10478;49.004;8.470;2022-09-17T00:29:12;1.38;;;0.30;;
20637;SDS011;10478;49.004;8.470;2022-09-17T00:31:38;0.60;;;0.43;;
20637;SDS011;10478;49.004;8.470;2022-09-17T00:34:04;0.90;;;0.38;;
20637;SDS011;10478;49.004;8.470;2022-09-17T00:36:30;1.45;;;0.47;;
20637;SDS011;10478;49.004;8.470;2022-09-17T00:38:56;1.73;;;0.52;;
20637;SDS011;10478;49.004;8.470;2022-09-17T00:41:24;1.40;;;0.75;;
20637;SDS011;10478;49.004;8.470;2022-09-17T00:43:52;1.55;;;0.60;;
20637;SDS011;10478;49.004;8.470;2022-09-17T00:49:08;0.80;;;0.55;;
20637;SDS011;10478;49.004;8.470;2022-09-17T00:51:36;1.70;;;0.38;;
20637;SDS011;10478;49.004;8.470;2022-09-17T00:54:05;1.20;;;0.50;;
20637;SDS011;10478;49.004;8.470;2022-09-17T00:56:33;0.65;;;0.47;;
20637;SDS011;10478;49.004;8.470;2022-09-17T00:59:00;1.20;;;0.52;;
20637;SDS011;10478;49.004;8.470;2022-09-17T01:01:26;2.50;;;0.45;;
20637;SDS011;10478;49.004;8.470;2022-09-17T01:03:52;0.73;;;0.43;;
20637;SDS011;10478;49.004;8.470;2022-09-17T01:17:31;0.68;;;0.40;;
20637;SDS011;10478;49.004;8.470;2022-09-17T01:25:41;2.67;;;1.17;;
20637;SDS011;10478;49.004;8.470;2022-09-17T01:31:12;2.58;;;0.68;;
20637;SDS011;10478;49.004;8.470;2022-09-17T01:47:01;3.92;;;0.73;;
20637;SDS011;10478;49.004;8.470;2022-09-17T01:49:29;2.78;;;0.30;;
20637;SDS011;10478;49.004;8.470;2022-09-17T01:51:56;2.17;;;0.30;;
20637;SDS011;10478;49.004;8.470;2022-09-17T01:54:25;3.55;;;0.77;;
20637;SDS011;10478;49.004;8.470;2022-09-17T01:57:00;4.72;;;0.57;;
20637;SDS011;10478;49.004;8.470;2022-09-17T02:02:22;3.63;;;0.53;;
20637;SDS011;10478;49.004;8.470;2022-09-17T02:04:54;2.53;;;0.70;;
20637;SDS011;10478;49.004;8.470;2022-09-17T02:07:23;2.25;;;0.65;;
20637;SDS011;10478;49.004;8.470;2022-09-17T02:10:04;0.98;;;0.43;;
20637;SDS011;10478;49.004;8.470;2022-09-17T02:12:34;0.50;;;0.40;;
20637;SDS011;10478;49.004;8.470;2022-09-17T02:15:04;1.27;;;0.38;;
20637;SDS011;10478;49.004;8.470;2022-09-17T02:17:34;1.75;;;0.60;;
20637;SDS011;10478;49.004;8.470;2022-09-17T02:20:03;2.17;;;0.35;;
20637;SDS011;10478;49.004;8.470;2022-09-17T02:25:17;3.42;;;0.60;;
20637;SDS011;10478;49.004;8.470;2022-09-17T02:27:56;0.68;;;0.50;;
20637;SDS011;10478;49.004;8.470;2022-09-17T02:30:25;3.15;;;0.45;;
20637;SDS011;10478;49.004;8.470;2022-09-17T02:32:50;1.33;;;0.73;;
20637;SDS011;10478;49.004;8.470;2022-09-17T02:35:15;1.13;;;0.63;;
20637;SDS011;10478;49.004;8.470;2022-09-17T02:37:41;1.17;;;0.50;;
20637;SDS011;10478;49.004;8.470;2022-09-17T02:40:07;1.17;;;0.65;;
20637;SDS011;10478;49.004;8.470;2022-09-17T02:45:27;3.25;;;0.80;;
20637;SDS011;10478;49.004;8.470;2022-09-17T02:54:04;2.13;;;0.70;;
20637;SDS011;10478;49.004;8.470;2022-09-17T02:56:48;1.02;;;0.47;;
20637;SDS011;10478;49.004;8.470;2022-09-17T02:59:31;1.23;;;0.70;;
20637;SDS011;10478;49.004;8.470;2022-09-17T03:02:04;1.80;;;1.13;;
20637;SDS011;10478;49.004;8.470;2022-09-17T03:04:31;2.97;;;0.68;;
20637;SDS011;10478;49.004;8.470;2022-09-17T03:06:57;4.13;;;0.88;;
20637;SDS011;10478;49.004;8.470;2022-09-17T03:09:23;5.43;;;0.90;;
20637;SDS011;10478;49.004;8.470;2022-09-17T03:11:49;1.95;;;1.00;;
20637;SDS011;10478;49.004;8.470;2022-09-17T03:14:14;1.38;;;0.70;;
20637;SDS011;10478;49.004;8.470;2022-09-17T03:16:39;3.58;;;0.80;;
20637;SDS011;10478;49.004;8.470;2022-09-17T03:19:05;1.17;;;0.82;;
20637;SDS011;10478;49.004;8.470;2022-09-17T03:21:30;4.07;;;0.60;;
20637;SDS011;10478;49.004;8.470;2022-09-17T03:23:56;1.52;;;0.73;;
20637;SDS011;10478;49.004;8.470;2022-09-17T03:26:24;0.95;;;0.45;;
20637;SDS011;10478;49.004;8.470;2022-09-17T03:28:49;1.27;;;0.80;;
20637;SDS011;10478;49.004;8.470;2022-09-17T03:31:15;0.90;;;0.68;;
20637;SDS011;10478;49.004;8.470;2022-09-17T03:33:40;2.35;;;1.02;;
20637;SDS011;10478;49.004;8.470;2022-09-17T03:36:05;1.17;;;0.68;;
20637;SDS011;10478;49.004;8.470;2022-09-17T03:38:30;1.45;;;0.65;;
20637;SDS011;10478;49.004;8.470;2022-09-17T03:40:59;2.30;;;0.60;;
20637;SDS011;10478;49.004;8.470;2022-09-17T03:43:28;2.95;;;0.80;;
20637;SDS011;10478;49.004;8.470;2022-09-17T03:45:54;4.80;;;0.90;;
20637;SDS011;10478;49.004;8.470;2022-09-17T03:48:19;2.25;;;0.77;;
20637;SDS011;10478;49.004;8.470;2022-09-17T03:50:45;1.77;;;0.82;;
20637;SDS011;10478;49.004;8.470;2022-09-17T03:53:10;3.38;;;0.95;;
20637;SDS011;10478;49.004;8.470;2022-09-17T03:55:39;1.20;;;0.50;;
20637;SDS011;10478;49.004;8.470;2022-09-17T03:58:04;2.67;;;0.80;;
20637;SDS011;10478;49.004;8.470;2022-09-17T04:00:30;4.93;;;0.80;;
20637;SDS011;10478;49.004;8.470;2022-09-17T04:02:56;1.90;;;1.00;;
20637;SDS011;10478;49.004;8.470;2022-09-17T04:05:21;1.88;;;0.77;;
20637;SDS011;10478;49.004;8.470;2022-09-17T04:07:47;3.15;;;0.65;;
20637;SDS011;10478;49.004;8.470;2022-09-17T04:10:12;3.80;;;0.68;;
20637;SDS011;10478;49.004;8.470;2022-09-17T04:12:38;2.60;;;0.88;;
20637;SDS011;10478;49.004;8.470;2022-09-17T04:15:04;3.50;;;0.63;;
20637;SDS011;10478;49.004;8.470;2022-09-17T04:17:29;2.85;;;1.00;;
20637;SDS011;10478;49.004;8.470;2022-09-17T04:19:55;0.98;;;0.60;;
20637;SDS011;10478;49.004;8.470;2022-09-17T04:22:20;4.00;;;1.20;;
20637;SDS011;10478;49.004;8.470;2022-09-17T04:24:45;3.33;;;1.17;;
20637;SDS011;10478;49.004;8.470;2022-09-17T04:27:10;2.42;;;0.50;;
20637;SDS011;10478;49.004;8.470;2022-09-17T04:29:36;3.55;;;0.88;;
20637;SDS011;10478;49.004;8.470;2022-09-17T04:32:01;3.20;;;1.08;;
20637;SDS011;10478;49.004;8.470;2022-09-17T04:34:26;1.27;;;0.80;;
20637;SDS011;10478;49.004;8.470;2022-09-17T04:36:53;9.85;;;0.88;;
20637;SDS011;10478;49.004;8.470;2022-09-17T04:39:18;2.65;;;0.70;;
20637;SDS011;10478;49.004;8.470;2022-09-17T04:41:43;1.85;;;0.70;;
20637;SDS011;10478;49.004;8.470;2022-09-17T04:44:09;2.20;;;0.85;;
20637;SDS011;10478;49.004;8.470;2022-09-17T04:46:34;2.03;;;0.85;;
20637;SDS011;10478;49.004;8.470;2022-09-17T04:49:00;2.03;;;0.90;;
20637;SDS011;10478;49.004;8.470;2022-09-17T04:51:25;4.63;;;1.02;;
20637;SDS011;10478;49.004;8.470;2022-09-17T04:53:50;5.07;;;1.60;;
20637;SDS011;10478;49.004;8.470;2022-09-17T04:56:15;4.20;;;1.98;;
20637;SDS011;10478;49.004;8.470;2022-09-17T04:58:41;1.42;;;0.93;;
20637;SDS011;10478;49.004;8.470;2022-09-17T05:01:06;6.18;;;1.85;;
20637;SDS011;10478;49.004;8.470;2022-09-17T05:03:31;6.82;;;1.58;;
20637;SDS011;10478;49.004;8.470;2022-09-17T05:05:57;4.53;;;2.13;;
20637;SDS011;10478;49.004;8.470;2022-09-17T05:08:22;4.50;;;1.63;;
20637;SDS011;10478;49.004;8.470;2022-09-17T05:10:48;4.03;;;1.40;;
20637;SDS011;10478;49.004;8.470;2022-09-17T05:13:15;2.88;;;1.35;;
20637;SDS011;10478;49.004;8.470;2022-09-17T05:15:40;1.75;;;1.38;;
20637;SDS011;10478;49.004;8.470;2022-09-17T05:18:06;4.20;;;1.73;;
20637;SDS011;10478;49.004;8.470;2022-09-17T05:20:31;1.88;;;0.98;;
20637;SDS011;10478;49.004;8.470;2022-09-17T05:22:56;3.47;;;1.00;;
20637;SDS011;10478;49.004;8.470;2022-09-17T05:25:22;3.85;;;1.40;;
20637;SDS011;10478;49.004;8.470;2022-09-17T05:27:48;3.03;;;1.50;;
20637;SDS011;10478;49.004;8.470;2022-09-17T05:30:15;6.60;;;1.50;;
20637;SDS011;10478;49.004;8.470;2022-09-17T05:32:40;6.82;;;1.77;;
20637;SDS011;10478;49.004;8.470;2022-09-17T05:35:06;11.23;;;2.90;;
20637;SDS011;10478;49.004;8.470;2022-09-17T05:37:32;8.50;;;4.07;;
20637;SDS011;10478;49.004;8.470;2022-09-17T05:39:57;6.20;;;3.00;;
20637;SDS011;10478;49.004;8.470;2022-09-17T05:42:23;7.07;;;3.20;;
20637;SDS011;10478;49.004;8.470;2022-09-17T05:44:48;3.72;;;1.95;;
20637;SDS011;10478;49.004;8.470;2022-09-17T05:47:13;7.28;;;3.35;;
20637;SDS011;10478;49.004;8.470;2022-09-17T05:49:39;5.57;;;2.70;;
20637;SDS011;10478;49.004;8.470;2022-09-17T05:52:04;6.53;;;2.50;;
20637;SDS011;10478;49.004;8.470;2022-09-17T05:54:29;4.70;;;2.38;;
20637;SDS011;10478;49.004;8.470;2022-09-17T05:56:55;6.18;;;3.05;;
20637;SDS011;10478;49.004;8.470;2022-09-17T05:59:20;5.75;;;2.42;;
20637;SDS011;10478;49.004;8.470;2022-09-17T06:01:46;4.68;;;2.95;;
20637;SDS011;10478;49.004;8.470;2022-09-17T06:04:11;4.57;;;2.33;;
20637;SDS011;10478;49.004;8.470;2022-09-17T06:06:37;3.65;;;1.67;;
20637;SDS011;10478;49.004;8.470;2022-09-17T06:09:03;10.60;;;1.70;;
20637;SDS011;10478;49.004;8.470;2022-09-17T06:11:30;3.75;;;1.50;;
20637;SDS011;10478;49.004;8.470;2022-09-17T06:13:55;2.13;;;1.92;;
20637;SDS011;10478;49.004;8.470;2022-09-17T06:16:21;5.28;;;2.17;;
20637;SDS011;10478;49.004;8.470;2022-09-17T06:18:47;7.80;;;2.10;;
20637;SDS011;10478;49.004;8.470;2022-09-17T06:21:14;6.25;;;2.38;;
20637;SDS011;10478;49.004;8.470;2022-09-17T06:23:39;23.88;;;12.82;;
20637;SDS011;10478;49.004;8.470;2022-09-17T06:26:07;6.75;;;3.38;;
20637;SDS011;10478;49.004;8.470;2022-09-17T06:28:32;22.88;;;11.32;;
20637;SDS011;10478;49.004;8.470;2022-09-17T06:31:02;20.60;;;9.85;;
20637;SDS011;10478;49.004;8.470;2022-09-17T06:33:29;6.40;;;2.85;;
20637;SDS011;10478;49.004;8.470;2022-09-17T06:36:02;4.22;;;2.38;;
20637;SDS011;10478;49.004;8.470;2022-09-17T06:38:33;9.43;;;3.53;;
20637;SDS011;10478;49.004;8.470;2022-09-17T06:40:59;8.52;;;2.53;;
20637;SDS011;10478;49.004;8.470;2022-09-17T06:43:24;9.63;;;3.63;;
20637;SDS011;10478;49.004;8.470;2022-09-17T06:46:00;5.68;;;3.88;;
20637;SDS011;10478;49.004;8.470;2022-09-17T06:48:27;7.55;;;4.03;;
20637;SDS011;10478;49.004;8.470;2022-09-17T06:50:53;10.23;;;3.72;;
20637;SDS011;10478;49.004;8.470;2022-09-17T06:53:19;6.25;;;3.47;;
20637;SDS011;10478;49.004;8.470;2022-09-17T06:55:45;7.70;;;3.63;;
20637;SDS011;10478;49.004;8.470;2022-09-17T06:58:10;10.73;;;3.83;;
20637;SDS011;10478;49.004;8.470;2022-09-17T07:00:35;14.07;;;4.80;;
20637;SDS011;10478;49.004;8.470;2022-09-17T07:03:01;10.13;;;5.00;;
20637;SDS011;10478;49.004;8.470;2022-09-17T07:05:27;5.65;;;3.45;;
20637;SDS011;10478;49.004;8.470;2022-09-17T07:07:53;6.32;;;3.28;;
20637;SDS011;10478;49.004;8.470;2022-09-17T07:10:19;7.50;;;3.70;;
20637;SDS011;10478;49.004;8.470;2022-09-17T07:12:44;6.80;;;3.22;;
20637;SDS011;10478;49.004;8.470;2022-09-17T07:15:10;4.63;;;3.17;;
20637;SDS011;10478;49.004;8.470;2022-09-17T07:17:38;6.47;;;3.42;;
20637;SDS011;10478;49.004;8.470;2022-09-17T07:20:07;3.67;;;2.72;;
20637;SDS011;10478;49.004;8.470;2022-09-17T07:22:33;6.35;;;3.13;;
20637;SDS011;10478;49.004;8.470;2022-09-17T07:24:59;6.32;;;2.75;;
20637;SDS011;10478;49.004;8.470;2022-09-17T07:27:27;6.78;;;2.65;;
20637;SDS011;10478;49.004;8.470;2022-09-17T07:29:53;5.35;;;2.72;;
20637;SDS011;10478;49.004;8.470;2022-09-17T07:32:18;5.43;;;2.78;;
20637;SDS011;10478;49.004;8.470;2022-09-17T07:34:44;5.32;;;2.88;;
20637;SDS011;10478;49.004;8.470;2022-09-17T07:37:09;6.00;;;2.65;;
20637;SDS011;10478;49.004;8.470;2022-09-17T07:39:34;7.05;;;3.10;;
20637;SDS011;10478;49.004;8.470;2022-09-17T07:42:00;7.95;;;4.28;;
20637;SDS011;10478;49.004;8.470;2022-09-17T07:44:25;7.70;;;3.75;;
20637;SDS011;10478;49.004;8.470;2022-09-17T07:46:51;7.25;;;3.65;;
20637;SDS011;10478;49.004;8.470;2022-09-17T07:49:17;4.10;;;3.17;;
20637;SDS011;10478;49.004;8.470;2022-09-17T07:51:42;6.65;;;4.00;;
20637;SDS011;10478;49.004;8.470;2022-09-17T07:54:07;8.50;;;5.90;;
20637;SDS011;10478;49.004;8.470;2022-09-17T07:56:33;14.25;;;6.03;;
20637;SDS011;10478;49.004;8.470;2022-09-17T07:58:58;11.38;;;6.57;;
20637;SDS011;10478;49.004;8.470;2022-09-17T08:01:24;10.63;;;5.70;;
20637;SDS011;10478;49.004;8.470;2022-09-17T08:03:51;13.75;;;5.32;;
20637;SDS011;10478;49.004;8.470;2022-09-17T08:06:22;9.25;;;4.80;;
20637;SDS011;10478;49.004;8.470;2022-09-17T08:08:49;11.65;;;5.00;;
20637;SDS011;10478;49.004;8.470;2022-09-17T08:11:16;13.45;;;4.97;;
20637;SDS011;10478;49.004;8.470;2022-09-17T08:13:46;8.00;;;4.65;;
20637;SDS011;10478;49.004;8.470;2022-09-17T08:16:12;6.43;;;3.70;;
20637;SDS011;10478;49.004;8.470;2022-09-17T08:18:38;8.48;;;4.97;;
20637;SDS011;10478;49.004;8.470;2022-09-17T08:21:04;13.32;;;7.38;;
20637;SDS011;10478;49.004;8.470;2022-09-17T08:23:30;9.60;;;5.53;;
20637;SDS011;10478;49.004;8.470;2022-09-17T08:25:58;14.45;;;7.47;;
20637;SDS011;10478;49.004;8.470;2022-09-17T08:28:25;9.88;;;5.00;;
20637;SDS011;10478;49.004;8.470;2022-09-17T08:30:51;17.92;;;11.35;;
20637;SDS011;10478;49.004;8.470;2022-09-17T08:33:17;10.93;;;5.40;;
20637;SDS011;10478;49.004;8.470;2022-09-17T08:35:49;7.57;;;3.88;;
20637;SDS011;10478;49.004;8.470;2022-09-17T08:38:15;7.80;;;4.78;;
20637;SDS011;10478;49.004;8.470;2022-09-17T08:40:49;14.10;;;4.93;;
20637;SDS011;10478;49.004;8.470;2022-09-17T08:43:18;7.85;;;2.85;;
20637;SDS011;10478;49.004;8.470;2022-09-17T08:45:43;5.60;;;3.30;;
20637;SDS011;10478;49.004;8.470;2022-09-17T08:48:09;9.80;;;3.95;;
20637;SDS011;10478;49.004;8.470;2022-09-17T08:50:36;9.45;;;4.15;;
20637;SDS011;10478;49.004;8.470;2022-09-17T09:04:02;7.07;;;3.58;;
20637;SDS011;10478;49.004;8.470;2022-09-17T09:06:33;8.05;;;4.38;;
20637;SDS011;10478;49.004;8.470;2022-09-17T09:09:04;7.50;;;3.90;;
20637;SDS011;10478;49.004;8.470;2022-09-17T09:11:34;13.85;;;5.30;;
20637;SDS011;10478;49.004;8.470;2022-09-17T09:14:06;11.15;;;4.43;;
20637;SDS011;10478;49.004;8.470;2022-09-17T09:16:39;7.22;;;3.65;;
20637;SDS011;10478;49.004;8.470;2022-09-17T09:19:25;6.97;;;3.25;;
20637;SDS011;10478;49.004;8.470;2022-09-17T09:24:40;10.05;;;3.67;;
20637;SDS011;10478;49.004;8.470;2022-09-17T09:27:26;8.05;;;3.88;;
20637;SDS011;10478;49.004;8.470;2022-09-17T09:35:15;12.05;;;6.07;;
20637;SDS011;10478;49.004;8.470;2022-09-17T09:37:49;5.75;;;3.45;;
20637;SDS011;10478;49.004;8.470;2022-09-17T09:42:55;5.85;;;2.83;;
20637;SDS011;10478;49.004;8.470;2022-09-17T09:45:37;4.38;;;2.58;;
20637;SDS011;10478;49.004;8.470;2022-09-17T09:48:25;9.20;;;2.67;;
20637;SDS011;10478;49.004;8.470;2022-09-17T09:53:58;5.93;;;2.13;;
20637;SDS011;10478;49.004;8.470;2022-09-17T09:56:50;1.95;;;1.65;;
20637;SDS011;10478;49.004;8.470;2022-09-17T09:59:19;4.85;;;2.50;;
20637;SDS011;10478;49.004;8.470;2022-09-17T10:01:44;5.80;;;2.63;;
20637;SDS011;10478;49.004;8.470;2022-09-17T10:04:14;5.72;;;1.98;;
20637;SDS011;10478;49.004;8.470;2022-09-17T10:06:42;3.88;;;2.20;;
20637;SDS011;10478;49.004;8.470;2022-09-17T10:09:08;6.45;;;2.28;;
20637;SDS011;10478;49.004;8.470;2022-09-17T10:11:34;4.18;;;2.08;;
20637;SDS011;10478;49.004;8.470;2022-09-17T10:16:47;5.15;;;2.35;;
20637;SDS011;10478;49.004;8.470;2022-09-17T10:19:15;6.85;;;2.95;;
20637;SDS011;10478;49.004;8.470;2022-09-17T10:21:43;6.18;;;1.80;;
20637;SDS011;10478;49.004;8.470;2022-09-17T10:24:25;10.43;;;4.78;;
20637;SDS011;10478;49.004;8.470;2022-09-17T10:26:59;4.47;;;2.92;;
20637;SDS011;10478;49.004;8.470;2022-09-17T10:29:25;9.32;;;2.83;;
20637;SDS011;10478;49.004;8.470;2022-09-17T10:31:52;8.10;;;3.85;;
20637;SDS011;10478;49.004;8.470;2022-09-17T10:34:18;13.10;;;7.40;;
20637;SDS011;10478;49.004;8.470;2022-09-17T10:36:46;10.05;;;4.18;;
20637;SDS011;10478;49.004;8.470;2022-09-17T10:41:56;11.93;;;3.05;;
20637;SDS011;10478;49.004;8.470;2022-09-17T10:44:23;10.30;;;5.80;;
20637;SDS011;10478;49.004;8.470;2022-09-17T10:46:53;5.97;;;3.47;;
20637;SDS011;10478;49.004;8.470;2022-09-17T10:51:51;5.97;;;3.22;;
20637;SDS011;10478;49.004;8.470;2022-09-17T10:56:52;3.60;;;2.35;;
20637;SDS011;10478;49.004;8.470;2022-09-17T11:02:00;4.25;;;1.60;;
20637;SDS011;10478;49.004;8.470;2022-09-17T11:04:49;8.00;;;2.30;;
20637;SDS011;10478;49.004;8.470;2022-09-17T11:07:32;2.58;;;1.50;;
20637;SDS011;10478;49.004;8.470;2022-09-17T11:18:41;7.50;;;3.90;;
20637;SDS011;10478;49.004;8.470;2022-09-17T11:21:19;8.68;;;2.75;;
20637;SDS011;10478;49.004;8.470;2022-09-17T11:26:42;3.17;;;1.63;;
20637;SDS011;10478;49.004;8.470;2022-09-17T11:32:08;3.70;;;1.52;;
20637;SDS011;10478;49.004;8.470;2022-09-17T11:37:11;6.80;;;3.33;;
20637;SDS011;10478;49.004;8.470;2022-09-17T11:40:01;5.90;;;2.78;;
20637;SDS011;10478;49.004;8.470;2022-09-17T11:42:40;1.88;;;1.13;;
20637;SDS011;10478;49.004;8.470;2022-09-17T11:45:28;2.08;;;1.00;;
20637;SDS011;10478;49.004;8.470;2022-09-17T11:50:31;8.65;;;1.92;;
20637;SDS011;10478;49.004;8.470;2022-09-17T11:53:10;2.95;;;1.63;;
20637;SDS011;10478;49.004;8.470;2022-09-17T11:55:58;7.32;;;1.77;;
20637;SDS011;10478;49.004;8.470;2022-09-17T11:58:31;5.03;;;2.33;;
20637;SDS011;10478;49.004;8.470;2022-09-17T12:01:02;3.13;;;1.15;;
20637;SDS011;10478;49.004;8.470;2022-09-17T12:03:31;1.48;;;0.90;;
20637;SDS011;10478;49.004;8.470;2022-09-17T12:06:06;3.95;;;0.93;;
20637;SDS011;10478;49.004;8.470;2022-09-17T12:08:50;4.30;;;0.80;;
20637;SDS011;10478;49.004;8.470;2022-09-17T12:11:26;1.63;;;0.80;;
20637;SDS011;10478;49.004;8.470;2022-09-17T12:14:02;2.50;;;1.00;;
20637;SDS011;10478;49.004;8.470;2022-09-17T12:16:33;4.18;;;0.80;;
20637;SDS011;10478;49.004;8.470;2022-09-17T12:21:39;2.08;;;0.90;;
20637;SDS011;10478;49.004;8.470;2022-09-17T12:24:10;1.75;;;0.80;;
20637;SDS011;10478;49.004;8.470;2022-09-17T12:34:53;1.83;;;0.85;;
20637;SDS011;10478;49.004;8.470;2022-09-17T12:48:40;3.15;;;0.93;;
20637;SDS011;10478;49.004;8.470;2022-09-17T12:59:59;1.25;;;0.70;;
20637;SDS011;10478;49.004;8.470;2022-09-17T13:02:36;2.38;;;0.70;;
20637;SDS011;10478;49.004;8.470;2022-09-17T13:11:03;2.80;;;1.08;;
20637;SDS011;10478;49.004;8.470;2022-09-17T13:17:04;2.20;;;1.00;;
20637;SDS011;10478;49.004;8.470;2022-09-17T13:19:34;1.25;;;1.10;;
20637;SDS011;10478;49.004;8.470;2022-09-17T13:22:05;3.53;;;0.77;;
20637;SDS011;10478;49.004;8.470;2022-09-17T13:24:34;3.22;;;0.85;;
20637;SDS011;10478;49.004;8.470;2022-09-17T13:27:01;4.38;;;0.80;;
20637;SDS011;10478;49.004;8.470;2022-09-17T13:32:08;5.32;;;1.17;;
20637;SDS011;10478;49.004;8.470;2022-09-17T13:34:54;2.60;;;1.00;;
20637;SDS011;10478;49.004;8.470;2022-09-17T13:37:19;1.48;;;0.90;;
20637;SDS011;10478;49.004;8.470;2022-09-17T13:39:46;3.03;;;0.75;;
20637;SDS011;10478;49.004;8.470;2022-09-17T13:42:14;3.88;;;1.13;;
20637;SDS011;10478;49.004;8.470;2022-09-17T13:45:16;3.88;;;1.33;;
20637;SDS011;10478;49.004;8.470;2022-09-17T13:47:38;1.23;;;0.80;;
20637;SDS011;10478;49.004;8.470;2022-09-17T13:53:08;2.83;;;1.10;;
20637;SDS011;10478;49.004;8.470;2022-09-17T13:55:48;1.27;;;0.77;;
20637;SDS011;10478;49.004;8.470;2022-09-17T14:08:30;3.63;;;1.02;;
20637;SDS011;10478;49.004;8.470;2022-09-17T14:13:46;5.82;;;3.28;;
20637;SDS011;10478;49.004;8.470;2022-09-17T14:16:34;5.63;;;1.60;;
20637;SDS011;10478;49.004;8.470;2022-09-17T14:19:17;3.03;;;0.65;;
20637;SDS011;10478;49.004;8.470;2022-09-17T14:24:22;4.18;;;1.48;;
20637;SDS011;10478;49.004;8.470;2022-09-17T14:27:04;8.02;;;2.65;;
20637;SDS011;10478;49.004;8.470;2022-09-17T14:29:35;4.82;;;2.08;;
20637;SDS011;10478;49.004;8.470;2022-09-17T14:32:24;6.60;;;3.50;;
20637;SDS011;10478;49.004;8.470;2022-09-17T14:34:56;2.15;;;1.58;;
20637;SDS011;10478;49.004;8.470;2022-09-17T14:37:23;10.35;;;4.40;;
20637;SDS011;10478;49.004;8.470;2022-09-17T14:39:48;9.13;;;4.95;;
20637;SDS011;10478;49.004;8.470;2022-09-17T14:42:17;4.65;;;2.70;;
20637;SDS011;10478;49.004;8.470;2022-09-17T14:44:50;12.13;;;2.85;;
20637;SDS011;10478;49.004;8.470;2022-09-17T14:47:38;11.15;;;5.38;;
20637;SDS011;10478;49.004;8.470;2022-09-17T14:50:23;8.60;;;4.28;;
20637;SDS011;10478;49.004;8.470;2022-09-17T14:52:50;7.45;;;2.45;;
20637;SDS011;10478;49.004;8.470;2022-09-17T14:55:17;8.60;;;2.03;;
20637;SDS011;10478;49.004;8.470;2022-09-17T14:57:53;4.57;;;1.55;;
20637;SDS011;10478;49.004;8.470;2022-09-17T15:00:23;10.32;;;3.33;;
20637;SDS011;10478;49.004;8.470;2022-09-17T15:02:51;4.85;;;1.90;;
20637;SDS011;10478;49.004;8.470;2022-09-17T15:08:12;3.17;;;1.15;;
20637;SDS011;10478;49.004;8.470;2022-09-17T15:13:16;3.65;;;0.80;;
20637;SDS011;10478;49.004;8.470;2022-09-17T15:15:51;2.42;;;1.15;;
20637;SDS011;10478;49.004;8.470;2022-09-17T15:18:18;2.55;;;0.98;;
20637;SDS011;10478;49.004;8.470;2022-09-17T15:20:45;3.22;;;1.52;;
20637;SDS011;10478;49.004;8.470;2022-09-17T15:25:45;2.83;;;1.13;;
20637;SDS011;10478;49.004;8.470;2022-09-17T15:28:17;2.17;;;0.80;;
20637;SDS011;10478;49.004;8.470;2022-09-17T15:30:50;1.38;;;0.85;;
20637;SDS011;10478;49.004;8.470;2022-09-17T15:33:15;1.42;;;0.73;;
20637;SDS011;10478;49.004;8.470;2022-09-17T15:35:56;1.27;;;0.57;;
20637;SDS011;10478;49.004;8.470;2022-09-17T15:38:27;2.50;;;0.82;;
20637;SDS011;10478;49.004;8.470;2022-09-17T15:40:53;5.68;;;1.67;;
20637;SDS011;10478;49.004;8.470;2022-09-17T15:45:57;2.58;;;0.90;;
20637;SDS011;10478;49.004;8.470;2022-09-17T15:48:46;2.95;;;1.00;;
20637;SDS011;10478;49.004;8.470;2022-09-17T15:51:25;3.08;;;0.85;;
20637;SDS011;10478;49.004;8.470;2022-09-17T15:53:53;2.03;;;0.80;;
20637;SDS011;10478;49.004;8.470;2022-09-17T15:56:24;5.20;;;1.02;;
20637;SDS011;10478;49.004;8.470;2022-09-17T15:58:59;3.42;;;1.50;;
20637;SDS011;10478;49.004;8.470;2022-09-17T16:01:49;3.45;;;0.93;;
20637;SDS011;10478;49.004;8.470;2022-09-17T16:06:56;3.03;;;1.08;;
20637;SDS011;10478;49.004;8.470;2022-09-17T16:12:01;2.45;;;0.80;;
20637;SDS011;10478;49.004;8.470;2022-09-17T16:14:26;6.53;;;1.02;;
20637;SDS011;10478;49.004;8.470;2022-09-17T16:16:51;3.03;;;0.82;;
20637;SDS011;10478;49.004;8.470;2022-09-17T16:19:19;5.10;;;1.42;;
20637;SDS011;10478;49.004;8.470;2022-09-17T16:21:44;5.28;;;2.45;;
20637;SDS011;10478;49.004;8.470;2022-09-17T16:24:09;5.32;;;2.03;;
20637;SDS011;10478;49.004;8.470;2022-09-17T16:26:35;3.33;;;0.88;;
20637;SDS011;10478;49.004;8.470;2022-09-17T16:29:01;5.53;;;1.50;;
20637;SDS011;10478;49.004;8.470;2022-09-17T16:31:38;2.95;;;1.38;;
20637;SDS011;10478;49.004;8.470;2022-09-17T16:34:03;7.22;;;1.52;;
20637;SDS011;10478;49.004;8.470;2022-09-17T16:36:29;6.20;;;1.73;;
20637;SDS011;10478;49.004;8.470;2022-09-17T16:38:56;3.45;;;1.80;;
20637;SDS011;10478;49.004;8.470;2022-09-17T16:41:21;6.22;;;2.65;;
20637;SDS011;10478;49.004;8.470;2022-09-17T16:43:46;6.05;;;3.63;;
20637;SDS011;10478;49.004;8.470;2022-09-17T16:46:12;9.70;;;3.30;;
20637;SDS011;10478;49.004;8.470;2022-09-17T16:48:37;4.72;;;1.65;;
20637;SDS011;10478;49.004;8.470;2022-09-17T16:51:06;3.95;;;2.00;;
20637;SDS011;10478;49.004;8.470;2022-09-17T16:53:32;8.38;;;2.95;;
20637;SDS011;10478;49.004;8.470;2022-09-17T16:55:59;3.88;;;1.90;;
20637;SDS011;10478;49.004;8.470;2022-09-17T16:58:25;4.47;;;2.05;;
20637;SDS011;10478;49.004;8.470;2022-09-17T17:00:50;8.48;;;3.05;;
20637;SDS011;10478;49.004;8.470;2022-09-17T17:03:15;7.78;;;4.82;;
20637;SDS011;10478;49.004;8.470;2022-09-17T17:05:41;24.85;;;12.98;;
20637;SDS011;10478;49.004;8.470;2022-09-17T17:08:07;8.82;;;4.18;;
20637;SDS011;10478;49.004;8.470;2022-09-17T17:10:33;4.90;;;1.77;;
20637;SDS011;10478;49.004;8.470;2022-09-17T17:12:59;4.82;;;1.75;;
20637;SDS011;10478;49.004;8.470;2022-09-17T17:15:24;7.28;;;3.53;;
20637;SDS011;10478;49.004;8.470;2022-09-17T17:17:49;2.35;;;1.60;;
20637;SDS011;10478;49.004;8.470;2022-09-17T17:20:15;7.63;;;2.00;;
20637;SDS011;10478;49.004;8.470;2022-09-17T17:22:41;3.85;;;1.88;;
20637;SDS011;10478;49.004;8.470;2022-09-17T17:25:07;4.75;;;1.50;;
20637;SDS011;10478;49.004;8.470;2022-09-17T17:27:33;6.90;;;1.65;;
20637;SDS011;10478;49.004;8.470;2022-09-17T17:29:59;8.05;;;2.17;;
20637;SDS011;10478;49.004;8.470;2022-09-17T17:32:26;4.35;;;1.20;;
20637;SDS011;10478;49.004;8.470;2022-09-17T17:34:51;8.73;;;3.25;;
20637;SDS011;10478;49.004;8.470;2022-09-17T17:37:17;15.75;;;8.18;;
20637;SDS011;10478;49.004;8.470;2022-09-17T17:39:42;12.23;;;7.13;;
20637;SDS011;10478;49.004;8.470;2022-09-17T17:42:07;19.80;;;5.75;;
20637;SDS011;10478;49.004;8.470;2022-09-17T17:44:33;7.20;;;3.42;;
20637;SDS011;10478;49.004;8.470;2022-09-17T17:46:58;12.27;;;8.55;;
20637;SDS011;10478;49.004;8.470;2022-09-17T17:49:23;8.75;;;6.00;;
20637;SDS011;10478;49.004;8.470;2022-09-17T17:51:49;9.77;;;3.50;;
20637;SDS011;10478;49.004;8.470;2022-09-17T17:54:14;4.53;;;3.47;;
20637;SDS011;10478;49.004;8.470;2022-09-17T17:56:39;8.15;;;3.08;;
20637;SDS011;10478;49.004;8.470;2022-09-17T17:59:05;10.15;;;5.28;;